createdAt,value
2023-01-17T00:00:02.191Z,0.3
2023-01-17T00:05:02.719Z,0.2
2023-01-17T00:10:02.833Z,0.2
2023-01-17T00:15:02.226Z,0.2
2023-01-17T00:20:02.204Z,0.2
2023-01-17T00:25:02.526Z,0.2
2023-01-17T00:30:04.889Z,0.2
2023-01-17T00:35:02.181Z,0.1
2023-01-17T00:40:02.228Z,0.2
2023-01-17T00:45:02.181Z,0.2
2023-01-17T00:50:02.268Z,0.2
2023-01-17T00:55:02.288Z,0.2
2023-01-17T01:00:02.185Z,0.2
2023-01-17T01:05:02.209Z,0.2
2023-01-17T01:10:02.330Z,0.2
2023-01-17T01:15:02.731Z,0.2
2023-01-17T01:20:02.729Z,0.2
2023-01-17T01:25:08.160Z,0.2
2023-01-17T01:30:02.248Z,0.2
2023-01-17T01:35:02.223Z,0.1
2023-01-17T01:40:04.549Z,0.1
2023-01-17T01:45:02.202Z,0.2
2023-01-17T01:50:02.215Z,0.2
2023-01-17T01:55:02.222Z,0.2
2023-01-17T02:00:02.197Z,0.2
2023-01-17T02:05:05.201Z,0.2
2023-01-17T02:10:02.300Z,0.1
2023-01-17T02:15:02.197Z,0.1
2023-01-17T02:20:02.221Z,0.1
2023-01-17T02:25:04.165Z,0.2
2023-01-17T02:30:02.210Z,0.2
2023-01-17T02:35:02.212Z,0.2
2023-01-17T02:40:03.222Z,0.2
2023-01-17T02:45:02.302Z,0.1
2023-01-17T02:50:02.237Z,0.3
2023-01-17T02:55:02.225Z,0.2
2023-01-17T03:00:02.346Z,0.2
2023-01-17T03:05:02.261Z,0.2
2023-01-17T03:10:02.565Z,0.2
2023-01-17T03:15:02.500Z,0.2
2023-01-17T03:20:02.335Z,0.2
2023-01-17T03:25:04.122Z,0.1
2023-01-17T03:30:02.293Z,0.2
2023-01-17T03:35:02.249Z,0.1
2023-01-17T03:40:03.234Z,0.2
2023-01-17T03:45:02.247Z,0.2
2023-01-17T03:50:02.493Z,0.2
2023-01-17T03:55:03.248Z,0.2
2023-01-17T04:00:02.223Z,0.2
2023-01-17T04:05:02.270Z,0.2
2023-01-17T04:10:03.408Z,0.1
2023-01-17T04:15:02.224Z,0.2
2023-01-17T04:20:02.207Z,0.2
2023-01-17T04:25:03.954Z,0.2
2023-01-17T04:30:02.260Z,0.1
2023-01-17T04:35:02.236Z,0.2
2023-01-17T04:40:04.280Z,0.2
2023-01-17T04:45:02.362Z,0.2
2023-01-17T04:50:02.371Z,0.2
2023-01-17T04:55:02.645Z,0.2
2023-01-17T05:00:02.248Z,0.1
2023-01-17T05:05:02.290Z,0.1
2023-01-17T05:10:02.233Z,0.1
2023-01-17T05:15:02.230Z,0.2
2023-01-17T05:20:02.286Z,0.2
2023-01-17T05:25:04.808Z,0.2
2023-01-17T05:30:02.310Z,0.2
2023-01-17T05:35:02.255Z,0.2
2023-01-17T05:40:03.085Z,0.2
2023-01-17T05:45:02.423Z,0.1
2023-01-17T05:50:02.236Z,0.2
2023-01-17T05:55:02.760Z,0.3
2023-01-17T06:00:02.224Z,0.2
2023-01-17T06:05:05.250Z,0.2
2023-01-17T06:10:02.768Z,0.3
2023-01-17T06:15:02.613Z,0.3
2023-01-17T06:20:02.751Z,0.2
2023-01-17T06:25:04.823Z,0.2
2023-01-17T06:30:02.280Z,0.2
2023-01-17T06:35:02.312Z,0.2
2023-01-17T06:40:05.969Z,0.2
2023-01-17T06:45:02.330Z,0.2
2023-01-17T06:50:02.275Z,0.2
2023-01-17T06:55:02.284Z,0.2
2023-01-17T07:00:02.572Z,0.2
2023-01-17T07:05:02.514Z,0.2
2023-01-17T07:10:02.669Z,0.3
2023-01-17T07:15:02.322Z,0.4
2023-01-17T07:20:02.292Z,0.3
2023-01-17T07:25:05.192Z,0.4
2023-01-17T07:30:02.266Z,0.5
2023-01-17T07:35:02.277Z,0.6
2023-01-17T07:40:02.484Z,0.9
2023-01-17T07:45:02.314Z,0.13
2023-01-17T07:50:02.352Z,0.11
2023-01-17T07:55:02.756Z,0.11
2023-01-17T08:00:02.351Z,0.13
2023-01-17T08:05:02.319Z,0.14
2023-01-17T08:10:02.397Z,0.16
2023-01-17T08:15:02.318Z,0.17
2023-01-17T08:20:02.322Z,0.17
2023-01-17T08:25:04.486Z,0.17
2023-01-17T08:30:02.281Z,0.18
2023-01-17T08:35:02.307Z,0.19
2023-01-17T08:40:03.973Z,0.2
2023-01-17T08:45:02.894Z,0.22
2023-01-17T08:50:02.290Z,0.24
2023-01-17T08:55:02.793Z,0.24
2023-01-17T09:00:02.460Z,1.29
2023-01-17T09:05:02.284Z,1.2
2023-01-17T09:10:03.041Z,5.4
2023-01-17T09:15:03.347Z,5.87
2023-01-17T09:20:02.284Z,5.51
2023-01-17T09:25:05.640Z,2.68
2023-01-17T09:30:02.306Z,0.43
2023-01-17T09:35:02.321Z,0.32
2023-01-17T09:40:02.369Z,0.4
2023-01-17T09:45:02.284Z,0.41
2023-01-17T09:50:02.303Z,0.47
2023-01-17T09:55:02.400Z,0.37
2023-01-17T10:00:04.379Z,0.35
2023-01-17T10:05:02.449Z,0.43
2023-01-17T10:10:03.005Z,0.39
2023-01-17T10:15:02.301Z,0.3
2023-01-17T10:20:02.326Z,0.29
2023-01-17T10:25:05.235Z,0.23
2023-01-17T10:30:02.412Z,0.21
2023-01-17T10:35:02.592Z,0.18
2023-01-17T10:40:03.116Z,0.21
2023-01-17T10:45:02.320Z,0.25
2023-01-17T10:50:02.314Z,0.23
2023-01-17T10:55:02.339Z,0.23
2023-01-17T11:00:02.359Z,0.32
2023-01-17T11:05:02.398Z,0.3
2023-01-17T11:10:02.785Z,0.29
2023-01-17T11:15:02.344Z,0.24
2023-01-17T11:20:02.453Z,0.2
2023-01-17T11:25:06.015Z,0.18
2023-01-17T11:30:02.324Z,0.18
2023-01-17T11:35:02.323Z,0.18
2023-01-17T11:40:05.700Z,0.18
2023-01-17T11:45:02.433Z,0.18
2023-01-17T11:50:02.595Z,0.16
2023-01-17T11:55:02.328Z,0.16
2023-01-17T12:00:02.336Z,0.17
2023-01-17T12:05:02.396Z,0.15
2023-01-17T12:10:02.322Z,0.14
2023-01-17T12:15:02.347Z,0.17
2023-01-17T12:20:02.323Z,0.2
2023-01-17T12:25:05.704Z,0.2
2023-01-17T12:30:02.365Z,0.2
2023-01-17T12:35:02.349Z,0.16
2023-01-17T12:40:02.794Z,0.46
2023-01-17T12:45:02.389Z,0.21
2023-01-17T12:50:02.379Z,0.2
2023-01-17T12:55:03.083Z,0.18
2023-01-17T13:00:02.351Z,0.18
2023-01-17T13:05:02.329Z,0.19
2023-01-17T13:10:04.517Z,0.24
2023-01-17T13:15:02.386Z,0.24
2023-01-17T13:20:02.352Z,0.16
2023-01-17T13:25:05.479Z,0.16
2023-01-17T13:30:02.323Z,0.15
2023-01-17T13:35:02.356Z,0.14
2023-01-17T13:40:02.937Z,0.15
2023-01-17T13:45:02.471Z,0.13
2023-01-17T13:50:02.348Z,0.14
2023-01-17T13:55:02.620Z,0.13
2023-01-17T14:00:02.339Z,0.14
2023-01-17T14:05:02.594Z,0.14
2023-01-17T14:10:03.023Z,0.13
2023-01-17T14:15:02.422Z,0.14
2023-01-17T14:20:02.400Z,0.13
2023-01-17T14:25:05.187Z,0.13
2023-01-17T14:30:03.383Z,0.13
2023-01-17T14:35:02.391Z,0.1
2023-01-17T14:40:02.799Z,0.1
2023-01-17T14:45:02.399Z,0.1
2023-01-17T14:50:02.353Z,0.9
2023-01-17T14:55:02.401Z,0.9
2023-01-17T15:00:02.454Z,0.9
2023-01-17T15:05:02.360Z,0.7
2023-01-17T15:10:02.664Z,0.6
2023-01-17T15:15:02.383Z,0.5
2023-01-17T15:20:02.445Z,0.4
2023-01-17T15:25:04.673Z,0.4
2023-01-17T15:30:02.590Z,0.3
2023-01-17T15:35:02.388Z,0.3
2023-01-17T15:40:03.008Z,0.3
2023-01-17T15:45:02.363Z,0.3
2023-01-17T15:50:02.513Z,0.3
2023-01-17T15:55:05.242Z,0.3
2023-01-17T16:00:02.524Z,0.2
2023-01-17T16:05:02.452Z,0.2
2023-01-17T16:10:02.526Z,0.2
2023-01-17T16:15:12.614Z,0.2
2023-01-17T16:20:02.439Z,0.2
2023-01-17T16:25:04.483Z,0.2
2023-01-17T16:30:02.382Z,0.2
2023-01-17T16:35:02.628Z,0.1
2023-01-17T16:50:02.487Z,0.2
2023-01-17T16:55:02.875Z,0.1
2023-01-17T17:05:02.424Z,0.2
2023-01-17T17:10:02.367Z,0.1
2023-01-17T17:15:02.440Z,0.2
2023-01-17T17:20:02.644Z,0.2
2023-01-17T17:25:02.421Z,0.2
2023-01-17T17:30:02.382Z,0.2
2023-01-17T17:35:02.375Z,0.2
2023-01-17T17:40:02.437Z,0.2
2023-01-17T17:45:02.389Z,0.2
2023-01-17T17:50:02.401Z,0.2
2023-01-17T17:55:02.392Z,0.2
2023-01-17T18:00:02.390Z,0.1
2023-01-17T18:05:02.589Z,0.2
2023-01-17T18:10:02.423Z,0.2
2023-01-17T18:15:02.516Z,0.3
2023-01-17T18:20:02.456Z,0.2
2023-01-17T18:25:02.401Z,0.2
2023-01-17T18:30:02.386Z,0.2
2023-01-17T18:35:02.414Z,0.2
2023-01-17T18:40:02.508Z,0.1
2023-01-17T18:45:02.400Z,0.2
2023-01-17T18:50:02.388Z,0.2
2023-01-17T18:55:02.430Z,0.2
2023-01-17T19:00:02.982Z,0.2
2023-01-17T19:05:02.464Z,0.2
2023-01-17T19:10:02.495Z,0.2
2023-01-17T19:15:02.401Z,0.2
2023-01-17T19:20:02.405Z,0.1
2023-01-17T19:25:02.401Z,0.2
2023-01-17T19:30:02.433Z,0.2
2023-01-17T19:35:02.795Z,0.2
2023-01-17T19:40:02.408Z,0.2
2023-01-17T19:45:02.440Z,0.3
2023-01-17T19:50:02.999Z,0.2
2023-01-17T19:55:02.466Z,0.2
2023-01-17T20:00:02.473Z,0.2
2023-01-17T20:05:02.477Z,0.2
2023-01-17T20:10:02.503Z,0.2
2023-01-17T20:15:02.489Z,0.2
2023-01-17T20:20:02.455Z,0.2
2023-01-17T20:25:02.450Z,0.1
2023-01-17T20:30:18.754Z,0.1
2023-01-17T20:35:02.553Z,0.2
2023-01-17T20:40:02.488Z,0.3
2023-01-17T20:45:02.443Z,0.2
2023-01-17T20:50:03.815Z,0.2
2023-01-17T20:55:02.558Z,0.2
2023-01-17T21:00:02.516Z,0.2
2023-01-17T21:05:02.936Z,0.2
2023-01-17T21:10:02.474Z,0.2
2023-01-17T21:15:02.491Z,0.2
2023-01-17T21:20:02.524Z,0.2
2023-01-17T21:25:02.618Z,0.2
2023-01-17T21:30:02.496Z,0.3
2023-01-17T21:35:02.678Z,0.2
2023-01-17T21:40:05.569Z,0.2
2023-01-17T21:45:02.766Z,0.1
2023-01-17T21:50:02.514Z,0.1
2023-01-17T21:55:02.478Z,0.2
2023-01-17T22:00:02.487Z,0.2
2023-01-17T22:05:02.555Z,0.2
2023-01-17T22:10:02.488Z,0.2
2023-01-17T22:15:02.577Z,0.1
2023-01-17T22:20:02.508Z,0.1
2023-01-17T22:25:02.521Z,0.2
2023-01-17T22:30:02.531Z,0.2
2023-01-17T22:35:03.527Z,0.2
2023-01-17T22:40:02.486Z,0.2
2023-01-17T22:45:02.519Z,0.2
2023-01-17T22:50:02.517Z,0.1
2023-01-17T22:55:02.500Z,0.2
2023-01-17T23:00:03.867Z,0.2
2023-01-17T23:05:02.539Z,0.2
2023-01-17T23:10:02.497Z,0.1
2023-01-17T23:15:02.759Z,0.2
2023-01-17T23:20:02.493Z,0.2
2023-01-17T23:25:02.670Z,0.2
2023-01-17T23:30:02.492Z,0.2
2023-01-17T23:35:02.446Z,0.2
2023-01-17T23:40:02.494Z,0.3
2023-01-17T23:45:02.795Z,0.3
2023-01-17T23:50:03.055Z,0.2
2023-01-17T23:55:02.596Z,0.2
